Gardena, CA (90247)

5:08 PM PDT on October 21, 2014 (GMT -0700)
Goodyear Blimp Base | Change Station
CLOSE
Current Station
Personal Weather Station
Location: Gardena, CA
Elevation: 65 ft
Nearby Weather Stations

Elev 65 ft 33.86 °N, 118.28 °W | Updated 20 seconds ago

Clear
Clear
73.5 °F
Feels Like 77 °F
N
8.0
Wind Variable Wind from West
Gusts 19.0 mph

Today
High -- | Low -- °F
--% Chance of Precip.
Yesterday
High -- | Low -- °F
Precip. -- in
7:03 AM 6:11 PM
Waning Crescent, 4% visible
Pressure 29.84 in
Visibility 10.0 miles
Clouds Clear
Heat Index 77 °F
Dew Point 40 °F
Humidity 30%
Rainfall 0.00 in
Snow Depth Not available.
UV 0.0 out of 12
Pollen 3.90 out of 12
Ozone Good
Flu Activity Sporadic
METAR KHHR 212353Z 29007KT 10SM CLR 23/17 A2984 RMK AO2 SLP105 T02280167 10244 20222 56006

More Conditions Fewer Conditions

Pressure 29.84 in
Visibility 10.0 miles
Clouds Clear
Heat Index 77 °F
Dew Point 40 °F
Humidity 30%
Rainfall 0.00 in
Snow Depth Not available.
UV 0.0 out of 12
Pollen 3.90 out of 12
Ozone Good
Flu Activity Sporadic
METAR KHHR 212353Z 29007KT 10SM CLR 23/17 A2984 RMK AO2 SLP105 T02280167 10244 20222 56006

More Conditions Fewer Conditions

10-Day Weather Forecast

Almanac

Astronomy

Oct. 21, 2014 Rise Set
Actual Time 7:03 AM PDT 6:11 PM PDT
Civil Twilight 6:37 AM PDT 6:37 PM PDT
Nautical Twilight 6:08 AM PDT 7:06 PM PDT
Astronomical Twilight 5:39 AM PDT 7:35 PM PDT
Moon 4:57 AM PDT (10/21) 5:03 PM PDT (10/21)
Length of Visible Light 11h 59m
Length of Day
11h 08m
Tomorrow will be 1m 58s shorter.
Waning Crescent, 4% of the Moon is Illuminated
Today
Waning Crescent
Oct 23
New
Oct 30
First Quarter
Nov 6
Full
Nov 14
Last Quarter

Today's Extremes

State Highs State Lows

Community

WunderPhotos

Upload Photos

1,763,824 photos uploaded!

Nearby

Air Quality

  Air Quality AQ Index Pollutant
Yesterday Good
OZONE
Current Good
OZONE
Wednesday Good
PM10
Wednesday Good
OZONE
Wednesday Good
CO
Wednesday Good
NO2

Snow Depth

Station Depth Elevation
Leavitt Meadows 0 in 7200 ft
Echo Peak 0 in 7800 ft
Ward Creek #3 1 in 6750 ft
Adin Mountain 1 in 6200 ft

Earthquake Activity

City Distance Mag. Time & Date
No recent earthquake activity has been reported nearby.
Minimum magnitude displayed is 2.5.

Coastal Water Temperatures

Place Temperature
Santa Monica Pier 71.1 °F
Los Angeles, CA 70.0 °F
La Jolla, CA 72.0 °F

Nearby Weather Stations